sensor_id;sensor_type;location;lat;lon;timestamp;pressure;altitude;pressure_sealevel;temperature;humidity
76374;BME280;65197;50.164;8.012;2024-02-04T00:00:20;73920.41;;;-144.13;100.00
76374;BME280;65197;50.164;8.012;2024-02-04T00:02:45;73916.50;;;-144.13;100.00
76374;BME280;65197;50.164;8.012;2024-02-04T00:05:11;73912.59;;;-144.13;100.00
76374;BME280;65197;50.164;8.012;2024-02-04T00:07:36;73912.59;;;-144.13;100.00
76374;BME280;65197;50.164;8.012;2024-02-04T00:10:02;73908.69;;;-144.13;100.00
76374;BME280;65197;50.164;8.012;2024-02-04T00:12:28;73906.75;;;-144.13;100.00
76374;BME280;65197;50.164;8.012;2024-02-04T00:14:54;73908.69;;;-144.13;100.00
76374;BME280;65197;50.164;8.012;2024-02-04T00:17:19;73916.50;;;-144.13;100.00
76374;BME280;65197;50.164;8.012;2024-02-04T00:19:45;73916.50;;;-144.13;100.00
76374;BME280;65197;50.164;8.012;2024-02-04T00:22:10;73910.63;;;-144.13;100.00
76374;BME280;65197;50.164;8.012;2024-02-04T00:24:36;73904.78;;;-144.13;100.00
76374;BME280;65197;50.164;8.012;2024-02-04T00:27:01;73904.78;;;-144.13;100.00
76374;BME280;65197;50.164;8.012;2024-02-04T00:29:27;73900.88;;;-144.13;100.00
76374;BME280;65197;50.164;8.012;2024-02-04T00:31:52;73898.94;;;-144.13;100.00
76374;BME280;65197;50.164;8.012;2024-02-04T00:34:18;73893.09;;;-144.13;100.00
76374;BME280;65197;50.164;8.012;2024-02-04T00:36:43;73889.19;;;-144.13;100.00
76374;BME280;65197;50.164;8.012;2024-02-04T00:39:09;73889.19;;;-144.13;100.00
76374;BME280;65197;50.164;8.012;2024-02-04T00:41:35;73895.03;;;-144.13;100.00
76374;BME280;65197;50.164;8.012;2024-02-04T00:44:01;73900.88;;;-144.13;100.00
76374;BME280;65197;50.164;8.012;2024-02-04T00:46:27;73904.78;;;-144.13;100.00
76374;BME280;65197;50.164;8.012;2024-02-04T00:48:53;73904.78;;;-144.13;100.00
76374;BME280;65197;50.164;8.012;2024-02-04T00:51:18;73906.75;;;-144.13;100.00
76374;BME280;65197;50.164;8.012;2024-02-04T00:53:45;73900.88;;;-144.13;100.00
76374;BME280;65197;50.164;8.012;2024-02-04T00:56:11;73900.88;;;-144.13;100.00
76374;BME280;65197;50.164;8.012;2024-02-04T00:58:38;73896.97;;;-144.13;100.00
76374;BME280;65197;50.164;8.012;2024-02-04T01:01:04;73904.78;;;-144.13;100.00
76374;BME280;65197;50.164;8.012;2024-02-04T01:03:30;73908.69;;;-144.13;100.00
76374;BME280;65197;50.164;8.012;2024-02-04T01:05:56;73914.53;;;-144.13;100.00
76374;BME280;65197;50.164;8.012;2024-02-04T01:08:21;73916.50;;;-144.13;100.00
76374;BME280;65197;50.164;8.012;2024-02-04T01:10:47;73918.44;;;-144.13;100.00
76374;BME280;65197;50.164;8.012;2024-02-04T01:13:13;73916.50;;;-144.13;100.00
76374;BME280;65197;50.164;8.012;2024-02-04T01:15:39;73916.50;;;-144.13;100.00
76374;BME280;65197;50.164;8.012;2024-02-04T01:18:04;73916.50;;;-144.13;100.00
76374;BME280;65197;50.164;8.012;2024-02-04T01:20:30;73924.28;;;-144.13;100.00
76374;BME280;65197;50.164;8.012;2024-02-04T01:22:55;73932.09;;;-144.13;100.00
76374;BME280;65197;50.164;8.012;2024-02-04T01:25:21;73936.00;;;-144.13;100.00
76374;BME280;65197;50.164;8.012;2024-02-04T01:27:46;73943.81;;;-144.13;100.00
76374;BME280;65197;50.164;8.012;2024-02-04T01:30:12;73943.81;;;-144.13;100.00
76374;BME280;65197;50.164;8.012;2024-02-04T01:32:37;73941.84;;;-144.13;100.00
76374;BME280;65197;50.164;8.012;2024-02-04T01:35:03;73943.81;;;-144.13;100.00
76374;BME280;65197;50.164;8.012;2024-02-04T01:37:29;73955.50;;;-144.13;100.00
76374;BME280;65197;50.164;8.012;2024-02-04T01:39:54;73949.66;;;-144.13;100.00
76374;BME280;65197;50.164;8.012;2024-02-04T01:42:20;73951.59;;;-144.13;100.00
76374;BME280;65197;50.164;8.012;2024-02-04T01:44:46;73955.50;;;-144.13;100.00
76374;BME280;65197;50.164;8.012;2024-02-04T01:47:11;73955.50;;;-144.13;100.00
76374;BME280;65197;50.164;8.012;2024-02-04T01:49:38;73951.59;;;-144.13;100.00
76374;BME280;65197;50.164;8.012;2024-02-04T01:52:04;73947.72;;;-144.13;100.00
76374;BME280;65197;50.164;8.012;2024-02-04T01:54:31;73943.81;;;-144.13;100.00
76374;BME280;65197;50.164;8.012;2024-02-04T01:56:58;73947.72;;;-144.13;100.00
76374;BME280;65197;50.164;8.012;2024-02-04T01:59:27;73943.81;;;-144.13;100.00
76374;BME280;65197;50.164;8.012;2024-02-04T02:02:02;73947.72;;;-144.13;100.00
76374;BME280;65197;50.164;8.012;2024-02-04T02:04:28;73947.72;;;-144.13;100.00
76374;BME280;65197;50.164;8.012;2024-02-04T02:06:54;73939.91;;;-144.13;100.00
76374;BME280;65197;50.164;8.012;2024-02-04T02:09:21;73932.09;;;-144.13;100.00
76374;BME280;65197;50.164;8.012;2024-02-04T02:12:16;73928.19;;;-144.13;100.00
76374;BME280;65197;50.164;8.012;2024-02-04T02:14:50;73932.09;;;-144.13;100.00
76374;BME280;65197;50.164;8.012;2024-02-04T02:17:31;73928.19;;;-144.13;100.00
76374;BME280;65197;50.164;8.012;2024-02-04T02:20:19;73932.09;;;-144.13;100.00
76374;BME280;65197;50.164;8.012;2024-02-04T02:22:57;73924.28;;;-144.13;100.00
76374;BME280;65197;50.164;8.012;2024-02-04T02:25:26;73924.28;;;-144.13;100.00
76374;BME280;65197;50.164;8.012;2024-02-04T02:27:53;73920.41;;;-144.13;100.00
76374;BME280;65197;50.164;8.012;2024-02-04T02:30:18;73922.34;;;-144.13;100.00
76374;BME280;65197;50.164;8.012;2024-02-04T02:32:45;73918.44;;;-144.13;100.00
76374;BME280;65197;50.164;8.012;2024-02-04T02:35:13;73916.50;;;-144.13;100.00
76374;BME280;65197;50.164;8.012;2024-02-04T02:40:23;73908.69;;;-144.13;100.00
76374;BME280;65197;50.164;8.012;2024-02-04T02:42:52;73900.88;;;-144.13;100.00
76374;BME280;65197;50.164;8.012;2024-02-04T02:45:24;73904.78;;;-144.13;100.00
76374;BME280;65197;50.164;8.012;2024-02-04T02:47:51;73900.88;;;-144.13;100.00
76374;BME280;65197;50.164;8.012;2024-02-04T02:50:18;73908.69;;;-144.13;100.00
76374;BME280;65197;50.164;8.012;2024-02-04T02:52:43;73896.97;;;-144.13;100.00
76374;BME280;65197;50.164;8.012;2024-02-04T02:55:09;73891.13;;;-144.13;100.00
76374;BME280;65197;50.164;8.012;2024-02-04T02:57:34;73891.13;;;-144.13;100.00
76374;BME280;65197;50.164;8.012;2024-02-04T03:00:00;73887.22;;;-144.13;100.00
76374;BME280;65197;50.164;8.012;2024-02-04T03:02:25;73889.19;;;-144.13;100.00
76374;BME280;65197;50.164;8.012;2024-02-04T03:04:51;73887.22;;;-144.13;100.00
76374;BME280;65197;50.164;8.012;2024-02-04T03:07:16;73895.03;;;-144.13;100.00
76374;BME280;65197;50.164;8.012;2024-02-04T03:09:42;73893.09;;;-144.13;100.00
76374;BME280;65197;50.164;8.012;2024-02-04T03:12:08;73896.97;;;-144.13;100.00
76374;BME280;65197;50.164;8.012;2024-02-04T03:14:34;73889.19;;;-144.13;100.00
76374;BME280;65197;50.164;8.012;2024-02-04T03:17:00;73891.13;;;-144.13;100.00
76374;BME280;65197;50.164;8.012;2024-02-04T03:19:25;73887.22;;;-144.13;100.00
76374;BME280;65197;50.164;8.012;2024-02-04T03:21:51;73896.97;;;-144.13;100.00
76374;BME280;65197;50.164;8.012;2024-02-04T03:24:16;73885.28;;;-144.13;100.00
76374;BME280;65197;50.164;8.012;2024-02-04T03:26:42;73893.09;;;-144.13;100.00
76374;BME280;65197;50.164;8.012;2024-02-04T03:29:07;73879.44;;;-144.13;100.00
76374;BME280;65197;50.164;8.012;2024-02-04T03:31:33;73881.38;;;-144.13;100.00
76374;BME280;65197;50.164;8.012;2024-02-04T03:33:58;73881.38;;;-144.13;100.00
76374;BME280;65197;50.164;8.012;2024-02-04T03:36:24;73869.66;;;-144.13;100.00
76374;BME280;65197;50.164;8.012;2024-02-04T03:38:50;73873.56;;;-144.13;100.00
76374;BME280;65197;50.164;8.012;2024-02-04T03:41:16;73869.66;;;-144.13;100.00
76374;BME280;65197;50.164;8.012;2024-02-04T03:43:42;73877.47;;;-144.13;100.00
76374;BME280;65197;50.164;8.012;2024-02-04T03:46:07;73873.56;;;-144.13;100.00
76374;BME280;65197;50.164;8.012;2024-02-04T03:48:33;73877.47;;;-144.13;100.00
76374;BME280;65197;50.164;8.012;2024-02-04T03:51:01;73873.56;;;-144.13;100.00
76374;BME280;65197;50.164;8.012;2024-02-04T03:53:27;73877.47;;;-144.13;100.00
76374;BME280;65197;50.164;8.012;2024-02-04T03:55:52;73877.47;;;-144.13;100.00
76374;BME280;65197;50.164;8.012;2024-02-04T03:58:20;73879.44;;;-144.13;100.00
76374;BME280;65197;50.164;8.012;2024-02-04T04:00:45;73877.47;;;-144.13;100.00
76374;BME280;65197;50.164;8.012;2024-02-04T04:03:11;73881.38;;;-144.13;100.00
76374;BME280;65197;50.164;8.012;2024-02-04T04:05:36;73875.53;;;-144.13;100.00
76374;BME280;65197;50.164;8.012;2024-02-04T04:08:02;73863.81;;;-144.13;100.00
76374;BME280;65197;50.164;8.012;2024-02-04T04:10:28;73861.88;;;-144.13;100.00
76374;BME280;65197;50.164;8.012;2024-02-04T04:12:53;73861.88;;;-144.13;100.00
76374;BME280;65197;50.164;8.012;2024-02-04T04:15:19;73865.78;;;-144.13;100.00
76374;BME280;65197;50.164;8.012;2024-02-04T04:17:44;73865.78;;;-144.13;100.00
76374;BME280;65197;50.164;8.012;2024-02-04T04:20:11;73861.88;;;-144.13;100.00
76374;BME280;65197;50.164;8.012;2024-02-04T04:22:39;73854.06;;;-144.13;100.00
76374;BME280;65197;50.164;8.012;2024-02-04T04:25:05;73859.91;;;-144.13;100.00
76374;BME280;65197;50.164;8.012;2024-02-04T04:27:31;73861.88;;;-144.13;100.00
76374;BME280;65197;50.164;8.012;2024-02-04T04:29:56;73861.88;;;-144.13;100.00
76374;BME280;65197;50.164;8.012;2024-02-04T04:32:21;73859.91;;;-144.13;100.00
76374;BME280;65197;50.164;8.012;2024-02-04T04:34:47;73865.78;;;-144.13;100.00
76374;BME280;65197;50.164;8.012;2024-02-04T04:37:12;73865.78;;;-144.13;100.00
76374;BME280;65197;50.164;8.012;2024-02-04T04:39:38;73865.78;;;-144.13;100.00
76374;BME280;65197;50.164;8.012;2024-02-04T04:42:04;73861.88;;;-144.13;100.00
76374;BME280;65197;50.164;8.012;2024-02-04T04:44:29;73857.97;;;-144.13;100.00
76374;BME280;65197;50.164;8.012;2024-02-04T04:46:55;73850.16;;;-144.13;100.00
76374;BME280;65197;50.164;8.012;2024-02-04T04:49:20;73842.34;;;-144.13;100.00
76374;BME280;65197;50.164;8.012;2024-02-04T04:51:46;73848.22;;;-144.13;100.00
76374;BME280;65197;50.164;8.012;2024-02-04T04:54:11;73848.22;;;-144.13;100.00
76374;BME280;65197;50.164;8.012;2024-02-04T04:56:40;73850.16;;;-144.13;100.00
76374;BME280;65197;50.164;8.012;2024-02-04T04:59:07;73854.06;;;-144.13;100.00
76374;BME280;65197;50.164;8.012;2024-02-04T05:01:33;73856.00;;;-144.13;100.00
76374;BME280;65197;50.164;8.012;2024-02-04T05:03:58;73857.97;;;-144.13;100.00
76374;BME280;65197;50.164;8.012;2024-02-04T05:06:24;73854.06;;;-144.13;100.00
76374;BME280;65197;50.164;8.012;2024-02-04T05:08:49;73854.06;;;-144.13;100.00
76374;BME280;65197;50.164;8.012;2024-02-04T05:11:15;73852.13;;;-144.13;100.00
76374;BME280;65197;50.164;8.012;2024-02-04T05:13:40;73854.06;;;-144.13;100.00
76374;BME280;65197;50.164;8.012;2024-02-04T05:16:06;73850.16;;;-144.13;100.00
76374;BME280;65197;50.164;8.012;2024-02-04T05:18:31;73854.06;;;-144.13;100.00
76374;BME280;65197;50.164;8.012;2024-02-04T05:20:57;73857.97;;;-144.13;100.00
76374;BME280;65197;50.164;8.012;2024-02-04T05:23:22;73861.88;;;-144.13;100.00
76374;BME280;65197;50.164;8.012;2024-02-04T05:25:48;73850.16;;;-144.13;100.00
76374;BME280;65197;50.164;8.012;2024-02-04T05:28:14;73861.88;;;-144.13;100.00
76374;BME280;65197;50.164;8.012;2024-02-04T05:30:39;73869.66;;;-144.13;100.00
76374;BME280;65197;50.164;8.012;2024-02-04T05:33:05;73873.56;;;-144.13;100.00
76374;BME280;65197;50.164;8.012;2024-02-04T05:35:31;73869.66;;;-144.13;100.00
76374;BME280;65197;50.164;8.012;2024-02-04T05:37:57;73865.78;;;-144.13;100.00
76374;BME280;65197;50.164;8.012;2024-02-04T05:40:22;73857.97;;;-144.13;100.00
76374;BME280;65197;50.164;8.012;2024-02-04T05:42:48;73857.97;;;-144.13;100.00
76374;BME280;65197;50.164;8.012;2024-02-04T05:45:13;73854.06;;;-144.13;100.00
76374;BME280;65197;50.164;8.012;2024-02-04T05:47:39;73856.00;;;-144.13;100.00
76374;BME280;65197;50.164;8.012;2024-02-04T05:50:05;73854.06;;;-144.13;100.00
76374;BME280;65197;50.164;8.012;2024-02-04T05:52:31;73857.97;;;-144.13;100.00
76374;BME280;65197;50.164;8.012;2024-02-04T05:54:57;73854.06;;;-144.13;100.00
76374;BME280;65197;50.164;8.012;2024-02-04T05:57:22;73854.06;;;-144.13;100.00
76374;BME280;65197;50.164;8.012;2024-02-04T05:59:50;73854.06;;;-144.13;100.00
76374;BME280;65197;50.164;8.012;2024-02-04T06:02:18;73848.22;;;-144.13;100.00
76374;BME280;65197;50.164;8.012;2024-02-04T06:04:43;73852.13;;;-144.13;100.00
76374;BME280;65197;50.164;8.012;2024-02-04T06:07:09;73856.00;;;-144.13;100.00
76374;BME280;65197;50.164;8.012;2024-02-04T06:09:35;73852.13;;;-144.13;100.00
76374;BME280;65197;50.164;8.012;2024-02-04T06:12:01;73850.16;;;-144.13;100.00
76374;BME280;65197;50.164;8.012;2024-02-04T06:14:26;73852.13;;;-144.13;100.00
76374;BME280;65197;50.164;8.012;2024-02-04T06:16:52;73850.16;;;-144.13;100.00
76374;BME280;65197;50.164;8.012;2024-02-04T06:19:17;73846.25;;;-144.13;100.00
76374;BME280;65197;50.164;8.012;2024-02-04T06:21:43;73844.31;;;-144.13;100.00
76374;BME280;65197;50.164;8.012;2024-02-04T06:24:08;73846.25;;;-144.13;100.00
76374;BME280;65197;50.164;8.012;2024-02-04T06:26:37;73846.25;;;-144.13;100.00
76374;BME280;65197;50.164;8.012;2024-02-04T06:29:03;73852.13;;;-144.13;100.00
76374;BME280;65197;50.164;8.012;2024-02-04T06:31:28;73852.13;;;-144.13;100.00
76374;BME280;65197;50.164;8.012;2024-02-04T06:33:54;73854.06;;;-144.13;100.00
76374;BME280;65197;50.164;8.012;2024-02-04T06:36:19;73844.31;;;-144.13;100.00
76374;BME280;65197;50.164;8.012;2024-02-04T06:38:45;73838.47;;;-144.13;100.00
76374;BME280;65197;50.164;8.012;2024-02-04T06:41:10;73842.34;;;-144.13;100.00
76374;BME280;65197;50.164;8.012;2024-02-04T06:43:39;73848.22;;;-144.13;100.00
76374;BME280;65197;50.164;8.012;2024-02-04T06:46:04;73854.06;;;-144.13;100.00
76374;BME280;65197;50.164;8.012;2024-02-04T06:48:30;73856.00;;;-144.13;100.00
76374;BME280;65197;50.164;8.012;2024-02-04T06:50:55;73865.78;;;-144.13;100.00
76374;BME280;65197;50.164;8.012;2024-02-04T06:53:21;73854.06;;;-144.13;100.00
76374;BME280;65197;50.164;8.012;2024-02-04T06:55:46;73854.06;;;-144.13;100.00
76374;BME280;65197;50.164;8.012;2024-02-04T06:58:12;73842.34;;;-144.13;100.00
76374;BME280;65197;50.164;8.012;2024-02-04T07:00:37;73838.47;;;-144.13;100.00
76374;BME280;65197;50.164;8.012;2024-02-04T07:03:03;73844.31;;;-144.13;100.00
76374;BME280;65197;50.164;8.012;2024-02-04T07:05:28;73844.31;;;-144.13;100.00
76374;BME280;65197;50.164;8.012;2024-02-04T07:07:54;73850.16;;;-144.13;100.00
76374;BME280;65197;50.164;8.012;2024-02-04T07:10:20;73852.13;;;-144.13;100.00
76374;BME280;65197;50.164;8.012;2024-02-04T07:12:45;73859.91;;;-144.13;100.00
76374;BME280;65197;50.164;8.012;2024-02-04T07:15:11;73859.91;;;-144.13;100.00
76374;BME280;65197;50.164;8.012;2024-02-04T07:17:37;73852.13;;;-144.13;100.00
76374;BME280;65197;50.164;8.012;2024-02-04T07:20:02;73861.88;;;-144.13;100.00
76374;BME280;65197;50.164;8.012;2024-02-04T07:22:28;73857.97;;;-144.13;100.00
76374;BME280;65197;50.164;8.012;2024-02-04T07:24:54;73854.06;;;-144.13;100.00
76374;BME280;65197;50.164;8.012;2024-02-04T07:27:20;73850.16;;;-144.13;100.00
76374;BME280;65197;50.164;8.012;2024-02-04T07:29:45;73850.16;;;-144.13;100.00
76374;BME280;65197;50.164;8.012;2024-02-04T07:32:12;73852.13;;;-144.13;100.00
76374;BME280;65197;50.164;8.012;2024-02-04T07:34:38;73856.00;;;-144.13;100.00
76374;BME280;65197;50.164;8.012;2024-02-04T07:37:03;73850.16;;;-144.13;100.00
76374;BME280;65197;50.164;8.012;2024-02-04T07:39:29;73846.25;;;-144.13;100.00
76374;BME280;65197;50.164;8.012;2024-02-04T07:41:56;73854.06;;;-144.13;100.00
76374;BME280;65197;50.164;8.012;2024-02-04T07:44:28;73844.31;;;-144.13;100.00
76374;BME280;65197;50.164;8.012;2024-02-04T07:46:54;73850.16;;;-144.13;100.00
76374;BME280;65197;50.164;8.012;2024-02-04T07:49:19;73850.16;;;-144.13;100.00
76374;BME280;65197;50.164;8.012;2024-02-04T07:51:45;73848.22;;;-144.13;100.00
76374;BME280;65197;50.164;8.012;2024-02-04T07:54:10;73856.00;;;-144.13;100.00
76374;BME280;65197;50.164;8.012;2024-02-04T07:56:36;73846.25;;;-144.13;100.00
76374;BME280;65197;50.164;8.012;2024-02-04T07:59:02;73840.41;;;-144.13;100.00
76374;BME280;65197;50.164;8.012;2024-02-04T08:01:29;73842.34;;;-144.13;100.00
76374;BME280;65197;50.164;8.012;2024-02-04T08:03:54;73828.69;;;-144.13;100.00
76374;BME280;65197;50.164;8.012;2024-02-04T08:06:20;73822.84;;;-144.13;100.00
76374;BME280;65197;50.164;8.012;2024-02-04T08:08:46;73826.75;;;-144.13;100.00
76374;BME280;65197;50.164;8.012;2024-02-04T08:11:16;73820.91;;;-144.13;100.00
76374;BME280;65197;50.164;8.012;2024-02-04T08:13:42;73818.94;;;-144.13;100.00
76374;BME280;65197;50.164;8.012;2024-02-04T08:16:07;73815.03;;;-144.13;100.00
76374;BME280;65197;50.164;8.012;2024-02-04T08:18:33;73807.25;;;-144.13;100.00
76374;BME280;65197;50.164;8.012;2024-02-04T08:20:58;73809.19;;;-144.13;100.00
76374;BME280;65197;50.164;8.012;2024-02-04T08:23:24;73807.25;;;-144.13;100.00
76374;BME280;65197;50.164;8.012;2024-02-04T08:25:49;73813.09;;;-144.13;100.00
76374;BME280;65197;50.164;8.012;2024-02-04T08:28:15;73805.28;;;-144.13;100.00
76374;BME280;65197;50.164;8.012;2024-02-04T08:30:40;73805.28;;;-144.13;100.00
76374;BME280;65197;50.164;8.012;2024-02-04T08:33:06;73807.25;;;-144.13;100.00
76374;BME280;65197;50.164;8.012;2024-02-04T08:35:32;73803.34;;;-144.13;100.00
76374;BME280;65197;50.164;8.012;2024-02-04T08:37:58;73795.53;;;-144.13;100.00
76374;BME280;65197;50.164;8.012;2024-02-04T08:40:23;73813.09;;;-144.13;100.00
76374;BME280;65197;50.164;8.012;2024-02-04T08:42:49;73803.34;;;-144.13;100.00
76374;BME280;65197;50.164;8.012;2024-02-04T08:45:14;73795.53;;;-144.13;100.00
76374;BME280;65197;50.164;8.012;2024-02-04T08:47:40;73783.84;;;-144.13;100.00
76374;BME280;65197;50.164;8.012;2024-02-04T08:50:06;73772.13;;;-144.13;100.00
76374;BME280;65197;50.164;8.012;2024-02-04T08:52:32;73768.22;;;-144.13;100.00
76374;BME280;65197;50.164;8.012;2024-02-04T08:54:58;73707.75;;;-144.13;100.00
76374;BME280;65197;50.164;8.012;2024-02-04T08:57:25;73692.16;;;-144.13;100.00
76374;BME280;65197;50.164;8.012;2024-02-04T08:59:50;73678.50;;;-144.13;100.00
76374;BME280;65197;50.164;8.012;2024-02-04T09:02:16;73723.34;;;-144.13;100.00
76374;BME280;65197;50.164;8.012;2024-02-04T09:04:42;73744.81;;;-144.13;100.00
76374;BME280;65197;50.164;8.012;2024-02-04T09:07:08;73740.91;;;-144.13;100.00
76374;BME280;65197;50.164;8.012;2024-02-04T09:09:33;73742.88;;;-144.13;100.00
76374;BME280;65197;50.164;8.012;2024-02-04T09:11:59;73740.91;;;-144.13;100.00
76374;BME280;65197;50.164;8.012;2024-02-04T09:14:24;73738.97;;;-144.13;100.00
76374;BME280;65197;50.164;8.012;2024-02-04T09:16:50;73744.81;;;-144.13;100.00
76374;BME280;65197;50.164;8.012;2024-02-04T09:19:15;73733.09;;;-144.13;100.00
76374;BME280;65197;50.164;8.012;2024-02-04T09:21:41;73729.22;;;-144.13;100.00
76374;BME280;65197;50.164;8.012;2024-02-04T09:24:07;73729.22;;;-144.13;100.00
76374;BME280;65197;50.164;8.012;2024-02-04T09:26:33;73721.41;;;-144.13;100.00
76374;BME280;65197;50.164;8.012;2024-02-04T09:28:58;73719.47;;;-144.13;100.00
76374;BME280;65197;50.164;8.012;2024-02-04T09:31:24;73711.66;;;-144.13;100.00
76374;BME280;65197;50.164;8.012;2024-02-04T09:33:49;73711.66;;;-144.13;100.00
76374;BME280;65197;50.164;8.012;2024-02-04T09:36:15;73692.16;;;-144.13;100.00
76374;BME280;65197;50.164;8.012;2024-02-04T09:38:40;73701.91;;;-144.13;100.00
76374;BME280;65197;50.164;8.012;2024-02-04T09:41:06;73690.19;;;-144.13;100.00
76374;BME280;65197;50.164;8.012;2024-02-04T09:43:32;73684.34;;;-144.13;100.00
76374;BME280;65197;50.164;8.012;2024-02-04T09:45:59;73701.91;;;-144.13;100.00
76374;BME280;65197;50.164;8.012;2024-02-04T09:48:27;73682.38;;;-144.13;100.00
76374;BME280;65197;50.164;8.012;2024-02-04T09:50:55;73682.38;;;-144.13;100.00
76374;BME280;65197;50.164;8.012;2024-02-04T09:53:30;73670.69;;;-144.13;100.00
76374;BME280;65197;50.164;8.012;2024-02-04T09:55:57;73682.38;;;-144.13;100.00
76374;BME280;65197;50.164;8.012;2024-02-04T09:58:23;73678.50;;;-144.13;100.00
76374;BME280;65197;50.164;8.012;2024-02-04T10:00:50;73670.69;;;-144.13;100.00
76374;BME280;65197;50.164;8.012;2024-02-04T10:03:16;73662.88;;;-144.13;100.00
76374;BME280;65197;50.164;8.012;2024-02-04T10:05:42;73660.94;;;-144.13;100.00
76374;BME280;65197;50.164;8.012;2024-02-04T10:08:07;73651.19;;;-144.13;100.00
76374;BME280;65197;50.164;8.012;2024-02-04T10:10:33;73668.72;;;-144.13;100.00
76374;BME280;65197;50.164;8.012;2024-02-04T10:12:58;73668.72;;;-144.13;100.00
76374;BME280;65197;50.164;8.012;2024-02-04T10:15:30;73672.63;;;-144.13;100.00
76374;BME280;65197;50.164;8.012;2024-02-04T10:17:56;73647.28;;;-144.13;100.00
76374;BME280;65197;50.164;8.012;2024-02-04T10:20:21;73664.84;;;-144.13;100.00
76374;BME280;65197;50.164;8.012;2024-02-04T10:22:47;73682.38;;;-144.13;100.00
76374;BME280;65197;50.164;8.012;2024-02-04T10:25:15;73658.97;;;-144.13;100.00
76374;BME280;65197;50.164;8.012;2024-02-04T10:27:42;73668.72;;;-144.13;100.00
76374;BME280;65197;50.164;8.012;2024-02-04T10:30:08;73658.97;;;-144.13;100.00
76374;BME280;65197;50.164;8.012;2024-02-04T10:32:34;73658.97;;;-144.13;100.00
76374;BME280;65197;50.164;8.012;2024-02-04T10:35:00;73666.78;;;-144.13;100.00
76374;BME280;65197;50.164;8.012;2024-02-04T10:37:27;73666.78;;;-144.13;100.00
76374;BME280;65197;50.164;8.012;2024-02-04T10:39:52;73660.94;;;-144.13;100.00
76374;BME280;65197;50.164;8.012;2024-02-04T10:42:29;73662.88;;;-144.13;100.00
76374;BME280;65197;50.164;8.012;2024-02-04T10:44:54;73664.84;;;-144.13;100.00
76374;BME280;65197;50.164;8.012;2024-02-04T10:47:26;73666.78;;;-144.13;100.00
76374;BME280;65197;50.164;8.012;2024-02-04T10:49:58;73674.59;;;-144.13;100.00
76374;BME280;65197;50.164;8.012;2024-02-04T10:52:23;73660.94;;;-144.13;100.00
76374;BME280;65197;50.164;8.012;2024-02-04T10:54:52;73680.44;;;-144.13;100.00
76374;BME280;65197;50.164;8.012;2024-02-04T10:57:21;73682.38;;;-144.13;100.00
76374;BME280;65197;50.164;8.012;2024-02-04T10:59:52;73672.63;;;-144.13;100.00
76374;BME280;65197;50.164;8.012;2024-02-04T11:02:19;73668.72;;;-144.13;100.00
76374;BME280;65197;50.164;8.012;2024-02-04T11:04:48;73651.19;;;-144.13;100.00
76374;BME280;65197;50.164;8.012;2024-02-04T11:07:15;73655.06;;;-144.13;100.00
76374;BME280;65197;50.164;8.012;2024-02-04T11:09:42;73647.28;;;-144.13;100.00
76374;BME280;65197;50.164;8.012;2024-02-04T11:12:11;73631.66;;;-144.13;100.00
76374;BME280;65197;50.164;8.012;2024-02-04T11:14:41;73627.78;;;-144.13;100.00
76374;BME280;65197;50.164;8.012;2024-02-04T11:20:43;73629.72;;;-144.13;100.00
76374;BME280;65197;50.164;8.012;2024-02-04T11:23:20;73647.28;;;-144.13;100.00
76374;BME280;65197;50.164;8.012;2024-02-04T11:28:16;73635.56;;;-144.13;100.00
76374;BME280;65197;50.164;8.012;2024-02-04T11:30:43;73643.38;;;-144.13;100.00
76374;BME280;65197;50.164;8.012;2024-02-04T11:33:11;73645.31;;;-144.13;100.00
76374;BME280;65197;50.164;8.012;2024-02-04T11:35:37;73641.41;;;-144.13;100.00
76374;BME280;65197;50.164;8.012;2024-02-04T11:38:03;73635.56;;;-144.13;100.00
76374;BME280;65197;50.164;8.012;2024-02-04T11:40:39;73641.41;;;-144.13;100.00
76374;BME280;65197;50.164;8.012;2024-02-04T11:43:12;73643.38;;;-144.13;100.00
76374;BME280;65197;50.164;8.012;2024-02-04T11:45:40;73635.56;;;-144.13;100.00
76374;BME280;65197;50.164;8.012;2024-02-04T11:48:12;73647.28;;;-144.13;100.00
76374;BME280;65197;50.164;8.012;2024-02-04T11:50:39;73658.97;;;-144.13;100.00
76374;BME280;65197;50.164;8.012;2024-02-04T11:53:09;73649.22;;;-144.13;100.00
76374;BME280;65197;50.164;8.012;2024-02-04T11:55:36;73651.19;;;-144.13;100.00
76374;BME280;65197;50.164;8.012;2024-02-04T11:58:03;73647.28;;;-144.13;100.00
76374;BME280;65197;50.164;8.012;2024-02-04T12:00:29;73639.47;;;-144.13;100.00
76374;BME280;65197;50.164;8.012;2024-02-04T12:03:04;73635.56;;;-144.13;100.00
76374;BME280;65197;50.164;8.012;2024-02-04T12:05:35;73641.41;;;-144.13;100.00
76374;BME280;65197;50.164;8.012;2024-02-04T12:08:05;73619.97;;;-144.13;100.00
76374;BME280;65197;50.164;8.012;2024-02-04T12:10:32;73631.66;;;-144.13;100.00
76374;BME280;65197;50.164;8.012;2024-02-04T12:12:59;73639.47;;;-144.13;100.00
76374;BME280;65197;50.164;8.012;2024-02-04T12:15:28;73627.78;;;-144.13;100.00
76374;BME280;65197;50.164;8.012;2024-02-04T12:17:53;73623.88;;;-144.13;100.00
76374;BME280;65197;50.164;8.012;2024-02-04T12:20:19;73625.81;;;-144.13;100.00
76374;BME280;65197;50.164;8.012;2024-02-04T12:22:44;73619.97;;;-144.13;100.00
76374;BME280;65197;50.164;8.012;2024-02-04T12:25:10;73616.06;;;-144.13;100.00
76374;BME280;65197;50.164;8.012;2024-02-04T12:27:36;73569.25;;;-144.13;100.00
76374;BME280;65197;50.164;8.012;2024-02-04T12:30:02;73547.78;;;-144.13;100.00
76374;BME280;65197;50.164;8.012;2024-02-04T12:32:30;73563.41;;;-144.13;100.00
76374;BME280;65197;50.164;8.012;2024-02-04T12:34:56;73582.91;;;-144.13;100.00